createdAt,value
2023-03-22T00:00:00.204Z,11.07
2023-03-22T00:02:27.230Z,9.82
2023-03-22T00:04:55.125Z,10.70
2023-03-22T00:07:22.077Z,10.57
2023-03-22T00:09:48.990Z,11.27
2023-03-22T00:12:16.035Z,10.73
2023-03-22T00:14:42.987Z,10.52
2023-03-22T00:17:09.994Z,10.82
2023-03-22T00:19:37.507Z,10.93
2023-03-22T00:22:06.410Z,9.93
2023-03-22T00:24:33.393Z,10.88
2023-03-22T00:27:01.123Z,10.82
2023-03-22T00:29:28.086Z,10.57
2023-03-22T00:31:56.270Z,10.75
2023-03-22T00:34:23.348Z,10.82
2023-03-22T00:36:52.012Z,10.63
2023-03-22T00:39:19.111Z,10.85
2023-03-22T00:41:46.107Z,10.63
2023-03-22T00:44:13.032Z,11.35
2023-03-22T00:46:40.053Z,10.88
2023-03-22T00:49:06.986Z,11.35
2023-03-22T00:51:33.958Z,11.05
2023-03-22T00:54:01.007Z,10.85
2023-03-22T00:56:29.133Z,11.38
2023-03-22T00:58:56.324Z,12.48
2023-03-22T01:01:23.392Z,11.35
2023-03-22T01:03:50.924Z,12.30
2023-03-22T01:06:18.053Z,12.35
2023-03-22T01:08:45.179Z,12.75
2023-03-22T01:11:12.225Z,12.25
2023-03-22T01:13:39.611Z,12.48
2023-03-22T01:16:08.043Z,12.93
2023-03-22T01:18:36.093Z,13.07
2023-03-22T01:21:03.320Z,13.20
2023-03-22T01:23:30.677Z,12.82
2023-03-22T01:25:57.816Z,12.38
2023-03-22T01:28:27.044Z,12.73
2023-03-22T01:30:55.243Z,14.23
2023-03-22T01:33:22.438Z,12.88
2023-03-22T01:35:49.366Z,13.15
2023-03-22T01:38:16.316Z,12.98
2023-03-22T01:40:43.228Z,12.90
2023-03-22T01:43:17.768Z,14.40
2023-03-22T01:45:46.818Z,13.77
2023-03-22T01:48:34.250Z,14.15
2023-03-22T01:51:23.087Z,14.30
2023-03-22T01:53:54.846Z,15.15
2023-03-22T01:56:25.372Z,13.77
2023-03-22T01:58:54.168Z,15.75
2023-03-22T02:01:22.774Z,14.63
2023-03-22T02:03:52.806Z,15.75
2023-03-22T02:06:21.176Z,14.77
2023-03-22T02:08:49.930Z,15.60
2023-03-22T02:11:21.622Z,14.75
2023-03-22T02:14:00.159Z,15.38
2023-03-22T02:16:37.266Z,15.98
2023-03-22T02:19:22.587Z,16.10
2023-03-22T02:21:49.444Z,16.23
2023-03-22T02:24:46.304Z,15.07
2023-03-22T02:27:41.028Z,15.40
2023-03-22T02:30:26.744Z,15.65
2023-03-22T02:33:09.512Z,15.82
2023-03-22T02:35:46.757Z,15.38
2023-03-22T02:39:04.733Z,14.95
2023-03-22T02:42:14.298Z,14.02
2023-03-22T02:44:56.594Z,15.48
2023-03-22T02:47:34.446Z,15.50
2023-03-22T02:50:27.353Z,14.95
2023-03-22T02:53:07.452Z,14.27
2023-03-22T02:55:54.632Z,14.85
2023-03-22T02:58:27.113Z,14.18
2023-03-22T03:01:00.835Z,13.60
2023-03-22T03:03:30.531Z,13.57
2023-03-22T03:06:03.005Z,13.48
2023-03-22T03:08:31.038Z,13.55
2023-03-22T03:10:58.006Z,16.23
2023-03-22T03:13:25.038Z,13.80
2023-03-22T03:15:55.425Z,15.20
2023-03-22T03:18:53.114Z,13.45
2023-03-22T03:21:38.484Z,13.32
2023-03-22T03:24:23.947Z,13.85
2023-03-22T03:27:01.346Z,14.02
2023-03-22T03:29:56.060Z,12.48
2023-03-22T03:32:38.452Z,13.63
2023-03-22T03:35:22.724Z,14.18
2023-03-22T03:38:01.470Z,14.25
2023-03-22T03:40:34.103Z,13.93
2023-03-22T03:43:04.700Z,15.27
2023-03-22T03:45:32.542Z,16.10
2023-03-22T03:48:04.176Z,17.13
2023-03-22T03:50:31.675Z,16.33
2023-03-22T03:52:58.963Z,16.80
2023-03-22T03:55:28.736Z,18.23
2023-03-22T03:57:55.602Z,19.42
2023-03-22T04:00:22.665Z,19.50
2023-03-22T04:02:49.616Z,19.80
2023-03-22T04:05:16.663Z,20.48
2023-03-22T04:07:43.579Z,21.05
2023-03-22T04:10:11.078Z,21.83
2023-03-22T04:12:38.586Z,21.20
2023-03-22T04:15:06.363Z,22.42
2023-03-22T04:17:33.298Z,22.20
2023-03-22T04:20:05.327Z,23.75
2023-03-22T04:22:38.567Z,24.05
2023-03-22T04:25:11.810Z,24.60
2023-03-22T04:27:40.198Z,25.77
2023-03-22T04:30:13.012Z,24.05
2023-03-22T04:32:39.997Z,26.67
2023-03-22T04:35:07.053Z,26.42
2023-03-22T04:37:33.989Z,27.85
2023-03-22T04:40:01.006Z,26.52
2023-03-22T04:42:28.053Z,27.10
2023-03-22T04:44:54.971Z,26.90
2023-03-22T04:47:21.837Z,26.25
2023-03-22T04:49:50.040Z,25.70
2023-03-22T04:52:17.120Z,27.25
2023-03-22T04:54:44.029Z,29.05
2023-03-22T04:57:10.935Z,28.42
2023-03-22T04:59:37.933Z,28.27
2023-03-22T05:02:04.782Z,28.42
2023-03-22T05:04:32.065Z,29.23
2023-03-22T05:06:58.971Z,29.50
2023-03-22T05:09:25.911Z,28.33
2023-03-22T05:11:53.212Z,27.58
2023-03-22T05:14:20.370Z,28.63
2023-03-22T05:16:47.335Z,28.73
2023-03-22T05:19:14.327Z,27.60
2023-03-22T05:21:44.196Z,28.77
2023-03-22T05:24:11.944Z,26.52
2023-03-22T05:26:42.546Z,29.05
2023-03-22T05:29:11.069Z,29.85
2023-03-22T05:31:38.176Z,27.90
2023-03-22T05:34:05.228Z,28.02
2023-03-22T05:36:32.311Z,27.85
2023-03-22T05:38:59.774Z,28.45
2023-03-22T05:41:26.756Z,29.65
2023-03-22T05:43:54.163Z,28.08
2023-03-22T05:46:21.414Z,28.52
2023-03-22T05:48:48.416Z,28.80
2023-03-22T05:51:19.380Z,29.27
2023-03-22T05:53:47.896Z,26.90
2023-03-22T05:56:15.610Z,27.70
2023-03-22T05:58:42.670Z,28.30
2023-03-22T06:01:11.958Z,28.67
2023-03-22T06:03:39.630Z,28.25
2023-03-22T06:06:10.658Z,27.42
2023-03-22T06:08:39.881Z,27.85
2023-03-22T06:11:08.032Z,27.63
2023-03-22T06:13:35.076Z,27.30
2023-03-22T06:16:03.066Z,27.63
2023-03-22T06:18:31.389Z,27.60
2023-03-22T06:20:58.328Z,27.17
2023-03-22T06:23:25.368Z,28.13
2023-03-22T06:25:52.412Z,28.38
2023-03-22T06:28:19.409Z,28.08
2023-03-22T06:30:46.343Z,28.00
2023-03-22T06:33:13.317Z,27.42
2023-03-22T06:35:40.330Z,29.23
2023-03-22T06:38:07.335Z,29.52
2023-03-22T06:40:35.873Z,30.05
2023-03-22T06:43:06.949Z,27.52
2023-03-22T06:45:34.472Z,26.60
2023-03-22T06:48:01.639Z,28.98
2023-03-22T06:50:29.255Z,27.25
2023-03-22T06:52:56.948Z,26.38
2023-03-22T06:55:23.921Z,27.67
2023-03-22T06:57:51.125Z,27.05
2023-03-22T07:00:18.453Z,28.20
2023-03-22T07:03:04.353Z,27.70
2023-03-22T07:05:31.655Z,27.02
2023-03-22T07:07:58.655Z,26.75
2023-03-22T07:10:25.644Z,28.77
2023-03-22T07:12:52.590Z,26.92
2023-03-22T07:15:24.317Z,24.70
2023-03-22T07:17:52.222Z,25.17
2023-03-22T07:20:20.133Z,24.45
2023-03-22T07:22:47.179Z,24.38
2023-03-22T07:25:14.123Z,24.05
2023-03-22T07:27:41.161Z,22.65
2023-03-22T07:30:09.840Z,23.45
2023-03-22T07:32:37.210Z,22.15
2023-03-22T07:35:04.215Z,20.25
2023-03-22T07:37:31.370Z,22.02
2023-03-22T07:39:58.318Z,19.88
2023-03-22T07:42:25.288Z,19.60
2023-03-22T07:44:52.585Z,18.25
2023-03-22T07:47:30.620Z,19.48
2023-03-22T07:50:05.485Z,18.77
2023-03-22T07:52:32.454Z,18.75
2023-03-22T07:54:59.374Z,18.52
2023-03-22T07:57:26.303Z,17.45
2023-03-22T07:59:53.168Z,17.90
2023-03-22T08:02:20.261Z,16.58
2023-03-22T08:04:49.581Z,18.95
2023-03-22T08:07:18.709Z,17.30
2023-03-22T08:09:46.234Z,18.85
2023-03-22T08:12:13.274Z,16.77
2023-03-22T08:14:40.509Z,17.10
2023-03-22T08:17:07.748Z,18.33
2023-03-22T08:19:35.585Z,16.17
2023-03-22T08:22:03.492Z,15.55
2023-03-22T08:24:30.437Z,16.23
2023-03-22T08:26:57.721Z,15.45
2023-03-22T08:29:24.806Z,16.08
2023-03-22T08:31:51.967Z,15.50
2023-03-22T08:34:19.267Z,13.98
2023-03-22T08:36:46.423Z,14.05
2023-03-22T08:39:14.060Z,15.88
2023-03-22T08:41:41.008Z,14.80
2023-03-22T08:44:07.982Z,13.75
2023-03-22T08:46:35.963Z,13.75
2023-03-22T08:49:04.980Z,13.05
2023-03-22T08:51:32.031Z,13.43
2023-03-22T08:53:58.945Z,12.80
2023-03-22T08:56:27.300Z,14.25
2023-03-22T08:58:54.431Z,11.80
2023-03-22T09:01:21.467Z,13.77
2023-03-22T09:03:48.464Z,11.57
2023-03-22T09:06:15.528Z,12.57
2023-03-22T09:08:42.503Z,12.63
2023-03-22T09:11:11.157Z,12.00
2023-03-22T09:13:38.688Z,11.35
2023-03-22T09:16:08.889Z,12.43
2023-03-22T09:18:39.635Z,12.20
2023-03-22T09:21:07.644Z,12.02
2023-03-22T09:23:36.643Z,11.77
2023-03-22T09:26:08.970Z,11.27
2023-03-22T09:28:36.761Z,10.18
2023-03-22T09:31:06.841Z,9.70
2023-03-22T09:33:35.657Z,9.75
2023-03-22T09:36:03.173Z,10.57
2023-03-22T09:38:32.650Z,8.98
2023-03-22T09:41:07.532Z,10.82
2023-03-22T09:43:41.534Z,10.07
2023-03-22T09:46:17.015Z,10.40
2023-03-22T09:48:48.259Z,10.88
2023-03-22T09:51:24.605Z,10.45
2023-03-22T09:53:51.559Z,10.68
2023-03-22T09:56:26.821Z,9.35
2023-03-22T09:59:08.458Z,9.15
2023-03-22T10:01:48.972Z,9.77
2023-03-22T10:04:18.727Z,9.25
2023-03-22T10:06:50.785Z,9.45
2023-03-22T10:09:30.477Z,9.80
2023-03-22T10:12:26.480Z,9.18
2023-03-22T10:15:06.519Z,8.77
2023-03-22T10:17:35.604Z,9.23
2023-03-22T10:20:34.387Z,9.05
2023-03-22T10:23:04.148Z,9.30
2023-03-22T10:25:40.100Z,9.30
2023-03-22T10:28:42.232Z,10.13
2023-03-22T10:31:17.975Z,8.98
2023-03-22T10:34:07.717Z,9.50
2023-03-22T10:36:38.119Z,8.82
2023-03-22T10:39:26.186Z,9.35
2023-03-22T10:41:59.877Z,9.02
2023-03-22T10:44:29.162Z,8.75
2023-03-22T10:46:58.410Z,9.73
2023-03-22T10:49:44.842Z,9.52
2023-03-22T10:52:26.021Z,9.32
2023-03-22T10:54:53.029Z,9.57
2023-03-22T10:57:19.922Z,8.18
2023-03-22T11:00:00.438Z,10.57
2023-03-22T11:02:32.416Z,9.27
2023-03-22T11:05:07.299Z,9.45
2023-03-22T11:07:44.835Z,8.85
2023-03-22T11:10:21.938Z,10.25
2023-03-22T11:12:53.028Z,8.60
2023-03-22T11:15:32.131Z,9.45
2023-03-22T11:18:21.196Z,9.15
2023-03-22T11:21:18.159Z,9.40
2023-03-22T11:24:21.658Z,8.15
2023-03-22T11:27:19.261Z,8.30
2023-03-22T11:29:49.249Z,7.22
2023-03-22T11:32:42.624Z,8.02
2023-03-22T11:35:23.840Z,8.98
2023-03-22T11:37:55.984Z,8.68
2023-03-22T11:40:29.100Z,8.23
2023-03-22T11:43:16.387Z,7.85
2023-03-22T11:45:45.088Z,8.05
2023-03-22T11:48:32.546Z,7.78
2023-03-22T11:51:18.104Z,9.25
2023-03-22T11:53:48.930Z,8.48
2023-03-22T11:56:19.016Z,7.63
2023-03-22T11:58:55.858Z,8.32
2023-03-22T12:01:46.800Z,8.80
2023-03-22T12:04:21.174Z,8.13
2023-03-22T12:06:49.381Z,8.20
2023-03-22T12:09:29.113Z,8.07
2023-03-22T12:11:57.738Z,8.38
2023-03-22T12:14:49.807Z,7.68
2023-03-22T12:17:21.594Z,8.02
2023-03-22T12:19:57.436Z,8.23
2023-03-22T12:22:35.961Z,7.97
2023-03-22T12:25:03.760Z,8.05
2023-03-22T12:27:41.074Z,8.20
2023-03-22T12:30:20.899Z,8.70
2023-03-22T12:32:53.919Z,8.90
2023-03-22T12:35:26.642Z,8.10
2023-03-22T12:37:58.068Z,8.02
2023-03-22T12:40:32.906Z,8.00
2023-03-22T12:43:10.062Z,7.63
2023-03-22T12:45:43.014Z,8.65
2023-03-22T12:48:19.388Z,8.07
2023-03-22T12:51:11.901Z,7.90
2023-03-22T12:53:49.381Z,8.05
2023-03-22T12:56:19.023Z,8.82
2023-03-22T12:59:01.464Z,8.00
2023-03-22T13:02:07.153Z,8.43
2023-03-22T13:04:37.171Z,8.30
2023-03-22T13:07:16.670Z,8.32
2023-03-22T13:09:48.983Z,8.77
2023-03-22T13:12:18.658Z,9.00
2023-03-22T13:14:57.959Z,7.57
2023-03-22T13:17:25.419Z,9.25
2023-03-22T13:20:08.211Z,8.63
2023-03-22T13:22:38.028Z,8.50
2023-03-22T13:25:13.178Z,8.90
2023-03-22T13:27:46.206Z,7.68
2023-03-22T13:30:25.491Z,7.75
2023-03-22T13:33:04.569Z,9.15
2023-03-22T13:36:07.243Z,8.10
2023-03-22T13:38:38.752Z,8.07
2023-03-22T13:41:29.687Z,7.82
2023-03-22T13:43:59.366Z,8.07
2023-03-22T13:46:29.415Z,7.43
2023-03-22T13:49:02.632Z,9.93
2023-03-22T13:51:32.800Z,7.65
2023-03-22T13:54:37.825Z,8.10
2023-03-22T13:57:05.169Z,8.60
2023-03-22T14:00:09.614Z,8.68
2023-03-22T14:02:42.991Z,7.88
2023-03-22T14:05:17.849Z,8.20
2023-03-22T14:07:53.151Z,8.30
2023-03-22T14:10:42.341Z,8.40
2023-03-22T14:13:30.829Z,8.23
2023-03-22T14:16:04.672Z,9.10
2023-03-22T14:18:34.381Z,7.88
2023-03-22T14:21:05.948Z,8.02
